Time;durP1;ratioP1;P1;durP2;ratioP2;P2;SDS_P1;SDS_P2;PMS_P1;PMS_P2;Temp;Humidity;BMP_temperature;BMP_pressure;BME280_temperature;BME280_humidity;BME280_pressure;Samples;Min_cycle;Max_cycle;Signal;HPM_P1;HPM_P2
2021/10/30 00:00:12;;;;;;;17.35;2.80;;;8.90;90.00;;;;;;5085812;28;20417;-76
2021/10/30 00:02:40;;;;;;;19.27;2.40;;;8.90;90.00;;;;;;5090250;28;20036;-76
2021/10/30 00:05:10;;;;;;;18.85;2.92;;;8.90;90.10;;;;;;5083854;28;20052;-76
2021/10/30 00:07:42;;;;;;;21.00;3.05;;;8.90;90.10;;;;;;5089749;28;20047;-76
2021/10/30 00:10:12;;;;;;;17.80;2.20;;;8.80;90.20;;;;;;5089997;28;20059;-76
2021/10/30 00:12:41;;;;;;;17.70;2.80;;;8.80;90.30;;;;;;5080795;28;20040;-75
2021/10/30 00:15:10;;;;;;;21.45;2.65;;;8.80;90.30;;;;;;5078723;28;20048;-76
2021/10/30 00:17:37;;;;;;;18.00;2.63;;;8.80;90.40;;;;;;5076796;28;20044;-75
2021/10/30 00:20:06;;;;;;;11.30;2.42;;;8.80;90.40;;;;;;5091460;28;20048;-76
2021/10/30 00:22:34;;;;;;;13.70;2.63;;;8.80;90.40;;;;;;5095800;28;20441;-76
2021/10/30 00:25:02;;;;;;;19.15;2.65;;;8.80;90.40;;;;;;5106995;28;20070;-76
2021/10/30 00:27:30;;;;;;;18.83;2.30;;;8.80;90.50;;;;;;5097746;28;20044;-76
2021/10/30 00:29:58;;;;;;;18.70;2.83;;;8.80;90.60;;;;;;5092948;28;20048;-76
2021/10/30 00:32:26;;;;;;;16.15;2.22;;;8.80;90.60;;;;;;5094831;28;20059;-75
2021/10/30 00:34:53;;;;;;;17.83;2.15;;;8.80;90.60;;;;;;5091882;28;20052;-76
2021/10/30 00:37:21;;;;;;;20.75;2.25;;;8.80;90.50;;;;;;5096824;28;20056;-75
2021/10/30 00:39:49;;;;;;;20.30;2.70;;;8.80;90.60;;;;;;5112637;28;20114;-75
2021/10/30 00:42:17;;;;;;;16.80;1.83;;;8.90;90.60;;;;;;5073129;28;20059;-75
2021/10/30 00:44:44;;;;;;;15.25;2.63;;;8.90;90.50;;;;;;5071471;28;20063;-75
2021/10/30 00:47:14;;;;;;;16.33;2.08;;;8.90;90.50;;;;;;5072489;28;20044;-75
2021/10/30 00:49:43;;;;;;;18.30;2.40;;;8.80;90.50;;;;;;5072680;28;20044;-75
2021/10/30 00:52:13;;;;;;;16.83;2.85;;;8.80;90.50;;;;;;5073725;28;20567;-75
2021/10/30 00:54:43;;;;;;;11.52;2.20;;;8.80;90.60;;;;;;5111685;28;20051;-76
2021/10/30 00:57:12;;;;;;;14.40;2.03;;;8.80;90.50;;;;;;5109799;28;20052;-75
2021/10/30 00:59:41;;;;;;;16.60;2.75;;;8.80;90.50;;;;;;5112194;28;20043;-77
2021/10/30 01:02:08;;;;;;;12.55;2.05;;;8.80;90.60;;;;;;5113215;28;20062;-76
2021/10/30 01:04:37;;;;;;;15.30;1.80;;;8.80;90.50;;;;;;5113570;28;20047;-75
2021/10/30 01:07:05;;;;;;;16.10;2.13;;;8.80;90.60;;;;;;5112894;28;20489;-75
2021/10/30 01:09:33;;;;;;;16.27;1.90;;;8.80;90.60;;;;;;5111614;28;20502;-75
2021/10/30 01:12:01;;;;;;;23.15;2.53;;;8.80;90.70;;;;;;5110705;28;20047;-75
2021/10/30 01:14:29;;;;;;;14.95;1.90;;;8.80;90.60;;;;;;5111992;28;20063;-75
2021/10/30 01:17:03;;;;;;;10.25;1.88;;;8.80;90.60;;;;;;5092790;28;20055;-75
2021/10/30 01:19:31;;;;;;;18.10;2.00;;;8.80;90.70;;;;;;5092712;28;20424;-75
2021/10/30 01:21:59;;;;;;;18.25;1.90;;;8.80;90.60;;;;;;5091782;28;20044;-75
2021/10/30 01:24:28;;;;;;;15.07;1.98;;;8.80;90.70;;;;;;5092224;28;20040;-76
2021/10/30 01:26:56;;;;;;;14.20;1.92;;;8.80;90.70;;;;;;5092503;28;20055;-76
2021/10/30 01:29:24;;;;;;;16.27;2.20;;;8.80;90.80;;;;;;5086899;28;20044;-76
2021/10/30 01:31:54;;;;;;;19.73;2.60;;;8.80;90.70;;;;;;5083541;28;20056;-76
2021/10/30 01:34:27;;;;;;;12.77;2.72;;;8.80;90.70;;;;;;5080979;28;20048;-76
2021/10/30 01:36:56;;;;;;;14.10;1.90;;;8.80;90.70;;;;;;5089345;28;20063;-76
2021/10/30 01:39:25;;;;;;;17.67;2.08;;;8.80;90.70;;;;;;5090152;28;20052;-76
2021/10/30 01:41:53;;;;;;;11.15;1.58;;;8.80;90.60;;;;;;5092389;28;20052;-76
2021/10/30 01:44:21;;;;;;;11.68;1.63;;;8.80;90.60;;;;;;5092548;28;20052;-76
2021/10/30 01:46:49;;;;;;;15.52;2.28;;;8.80;90.70;;;;;;5092308;28;20104;-76
2021/10/30 01:49:16;;;;;;;13.02;2.53;;;8.80;90.60;;;;;;5092371;28;20051;-76
2021/10/30 01:51:44;;;;;;;16.92;2.10;;;8.80;90.70;;;;;;5091229;28;20063;-76
2021/10/30 01:54:11;;;;;;;17.88;1.92;;;8.90;90.70;;;;;;5094562;28;20540;-76
2021/10/30 01:56:39;;;;;;;11.07;1.58;;;8.90;90.60;;;;;;5093231;28;20044;-76
2021/10/30 01:59:06;;;;;;;11.88;1.67;;;9.00;90.50;;;;;;5097526;28;20051;-75
2021/10/30 02:01:35;;;;;;;12.68;2.35;;;9.00;90.50;;;;;;5099939;28;20047;-76
2021/10/30 02:04:03;;;;;;;15.88;2.13;;;9.00;90.40;;;;;;5110957;28;20040;-76
2021/10/30 02:06:30;;;;;;;19.67;1.80;;;9.00;90.30;;;;;;5096511;28;20070;-75
2021/10/30 02:08:58;;;;;;;23.77;2.42;;;9.10;90.30;;;;;;5094265;28;20044;-76
2021/10/30 02:11:26;;;;;;;10.05;1.63;;;9.20;90.30;;;;;;5098790;28;20044;-76
2021/10/30 02:13:54;;;;;;;12.52;2.30;;;9.20;90.20;;;;;;5111242;28;20052;-76
2021/10/30 02:16:21;;;;;;;19.33;2.30;;;9.20;90.20;;;;;;5097166;28;20036;-76
2021/10/30 02:18:49;;;;;;;17.02;2.15;;;9.20;90.20;;;;;;5092864;28;20062;-75
2021/10/30 02:21:17;;;;;;;18.65;2.22;;;9.30;90.20;;;;;;5094303;28;20048;-76
2021/10/30 02:23:45;;;;;;;15.70;2.22;;;9.30;90.20;;;;;;5090222;28;20052;-76
2021/10/30 02:26:12;;;;;;;13.93;1.83;;;9.30;90.10;;;;;;5090893;28;20052;-75
2021/10/30 02:28:44;;;;;;;13.75;1.80;;;9.30;90.10;;;;;;5090157;28;20044;-76
2021/10/30 02:31:12;;;;;;;19.20;1.95;;;9.30;90.10;;;;;;5093083;28;20500;-76
2021/10/30 02:33:40;;;;;;;19.08;1.90;;;9.30;90.10;;;;;;5091974;28;20039;-76
2021/10/30 02:36:07;;;;;;;14.88;2.17;;;9.30;90.10;;;;;;5094634;28;20393;-76
2021/10/30 02:38:35;;;;;;;16.67;1.85;;;9.30;90.10;;;;;;5102775;28;20480;-76
2021/10/30 02:41:03;;;;;;;13.23;2.20;;;9.30;90.10;;;;;;5101979;28;20048;-77
2021/10/30 02:43:30;;;;;;;12.20;1.95;;;9.30;90.10;;;;;;5093971;28;20047;-76
2021/10/30 02:45:58;;;;;;;18.67;1.90;;;9.30;90.10;;;;;;5094827;28;20051;-76
2021/10/30 02:48:26;;;;;;;7.90;1.50;;;9.30;90.00;;;;;;5072644;28;20493;-76
2021/10/30 02:50:54;;;;;;;12.43;2.10;;;9.30;90.10;;;;;;5090344;28;20060;-75
2021/10/30 02:53:22;;;;;;;18.23;2.33;;;9.40;90.00;;;;;;5092037;28;20044;-76
2021/10/30 02:55:50;;;;;;;16.95;2.03;;;9.40;89.90;;;;;;5091578;28;20501;-76
2021/10/30 02:58:18;;;;;;;14.23;2.28;;;9.40;89.90;;;;;;5091728;28;20477;-76
2021/10/30 03:00:46;;;;;;;10.55;1.85;;;9.40;89.90;;;;;;5088937;28;20048;-76
2021/10/30 03:03:13;;;;;;;15.13;1.52;;;9.40;89.90;;;;;;5094068;28;20401;-76
2021/10/30 03:05:41;;;;;;;12.85;1.85;;;9.50;89.90;;;;;;5078725;28;20071;-76
2021/10/30 03:08:09;;;;;;;12.13;1.77;;;9.50;89.90;;;;;;5071634;28;20075;-76
2021/10/30 03:10:37;;;;;;;17.17;2.25;;;9.50;89.90;;;;;;5079939;28;20099;-76
2021/10/30 03:13:05;;;;;;;12.50;2.17;;;9.50;89.80;;;;;;5093296;28;20060;-76
2021/10/30 03:15:33;;;;;;;14.23;1.90;;;9.50;89.80;;;;;;5093501;28;20059;-76
2021/10/30 03:18:00;;;;;;;17.02;2.65;;;9.60;89.70;;;;;;5093197;28;20040;-76
2021/10/30 03:20:28;;;;;;;13.75;2.35;;;9.60;89.70;;;;;;5086902;28;20063;-76
2021/10/30 03:22:56;;;;;;;12.27;1.50;;;9.60;89.70;;;;;;5072793;28;20044;-76
2021/10/30 03:25:25;;;;;;;16.40;2.00;;;9.60;89.70;;;;;;5080536;28;20066;-76
2021/10/30 03:27:52;;;;;;;17.10;2.20;;;9.70;89.70;;;;;;5093152;28;20051;-76
2021/10/30 03:30:21;;;;;;;16.02;2.20;;;9.70;89.70;;;;;;5087091;28;20063;-76
2021/10/30 03:32:48;;;;;;;16.13;2.00;;;9.70;89.60;;;;;;5071321;28;20352;-76
2021/10/30 03:35:16;;;;;;;15.65;2.33;;;9.80;89.60;;;;;;5089974;28;20052;-76
2021/10/30 03:37:44;;;;;;;10.85;1.75;;;9.80;89.50;;;;;;5092664;28;20048;-76
2021/10/30 03:40:12;;;;;;;10.23;1.50;;;9.80;89.50;;;;;;5080908;28;20050;-76
2021/10/30 03:42:40;;;;;;;13.52;1.75;;;9.80;89.50;;;;;;5094845;28;20073;-76
2021/10/30 03:45:08;;;;;;;15.95;1.80;;;9.80;89.50;;;;;;5094947;28;20048;-76
2021/10/30 03:47:36;;;;;;;16.83;2.28;;;9.80;89.40;;;;;;5091964;28;20060;-76
2021/10/30 03:50:04;;;;;;;10.95;1.60;;;9.80;89.40;;;;;;5074626;28;20536;-76
2021/10/30 03:52:32;;;;;;;17.40;2.22;;;9.90;89.40;;;;;;5094712;28;20040;-76
2021/10/30 03:54:59;;;;;;;18.05;1.98;;;9.90;89.40;;;;;;5096149;28;20044;-76
2021/10/30 03:57:27;;;;;;;16.90;2.30;;;9.90;89.40;;;;;;5096816;28;20056;-76
2021/10/30 03:59:55;;;;;;;14.75;1.60;;;9.90;89.40;;;;;;5110817;28;20047;-76
2021/10/30 04:02:23;;;;;;;16.73;2.05;;;9.90;89.50;;;;;;5102400;28;20038;-75
2021/10/30 04:04:51;;;;;;;14.70;2.00;;;9.90;89.50;;;;;;5102437;28;20048;-77
2021/10/30 04:07:19;;;;;;;22.63;2.67;;;9.90;89.50;;;;;;5094584;28;20500;-76
2021/10/30 04:09:47;;;;;;;11.50;2.00;;;9.90;89.50;;;;;;5096171;28;20055;-76
2021/10/30 04:12:15;;;;;;;12.45;1.73;;;9.90;89.60;;;;;;5076955;28;20032;-76
2021/10/30 04:14:43;;;;;;;14.10;1.88;;;9.90;89.70;;;;;;5082890;28;20052;-76
2021/10/30 04:17:10;;;;;;;21.83;2.75;;;9.90;89.80;;;;;;5073761;28;20056;-76
2021/10/30 04:19:38;;;;;;;17.10;2.00;;;9.80;90.10;;;;;;5074124;28;20366;-76
2021/10/30 04:22:06;;;;;;;13.65;1.95;;;9.80;90.10;;;;;;5091725;28;20044;-76
2021/10/30 04:24:34;;;;;;;15.98;2.10;;;9.80;90.30;;;;;;5075357;28;20048;-76
2021/10/30 04:27:02;;;;;;;14.82;1.77;;;9.80;90.40;;;;;;5079074;28;20040;-76
2021/10/30 04:29:30;;;;;;;17.02;2.22;;;9.80;90.50;;;;;;5093142;28;20401;-76
2021/10/30 04:32:00;;;;;;;14.07;2.13;;;9.80;90.60;;;;;;5089111;28;20052;-77
2021/10/30 04:34:42;;;;;;;24.38;2.38;;;9.80;90.70;;;;;;5086200;28;20453;-76
2021/10/30 04:37:16;;;;;;;10.90;1.88;;;9.80;90.70;;;;;;5109578;28;20047;-76
2021/10/30 04:39:49;;;;;;;14.85;1.95;;;9.80;90.80;;;;;;5111915;28;20048;-76
2021/10/30 04:42:18;;;;;;;16.65;2.90;;;9.70;90.90;;;;;;5113175;28;20455;-76
2021/10/30 04:44:46;;;;;;;13.35;1.92;;;9.80;90.90;;;;;;5100361;28;20059;-76
2021/10/30 04:47:19;;;;;;;14.77;1.92;;;9.80;91.00;;;;;;5100454;28;20485;-76
2021/10/30 04:49:48;;;;;;;36.78;3.70;;;9.80;91.10;;;;;;5083171;28;20482;-76
2021/10/30 04:52:16;;;;;;;17.45;2.13;;;9.80;91.10;;;;;;5111539;28;20052;-76
2021/10/30 04:54:44;;;;;;;17.63;1.77;;;9.80;91.10;;;;;;5104281;28;20051;-78
2021/10/30 04:57:12;;;;;;;19.80;2.20;;;9.80;91.20;;;;;;5093046;28;20497;-78
2021/10/30 04:59:40;;;;;;;10.15;1.55;;;9.80;91.20;;;;;;5092667;28;20039;-78
2021/10/30 05:02:08;;;;;;;21.30;3.03;;;9.80;91.20;;;;;;5092636;28;20405;-78
2021/10/30 05:04:36;;;;;;;18.00;2.10;;;9.80;91.20;;;;;;5093052;28;20122;-78
2021/10/30 05:07:04;;;;;;;18.20;2.10;;;9.80;91.20;;;;;;5092944;28;20048;-78
2021/10/30 05:09:32;;;;;;;17.05;2.40;;;9.90;91.20;;;;;;5094503;28;20044;-78
2021/10/30 05:11:59;;;;;;;13.10;2.10;;;9.90;91.30;;;;;;5093122;28;20054;-77
2021/10/30 05:14:29;;;;;;;12.85;2.05;;;9.90;91.20;;;;;;5090372;28;20102;-78
2021/10/30 05:16:57;;;;;;;17.40;2.22;;;9.90;91.20;;;;;;5082063;28;20056;-78
2021/10/30 05:19:25;;;;;;;17.63;2.63;;;9.90;91.20;;;;;;5090374;28;20044;-78
2021/10/30 05:21:52;;;;;;;17.27;2.10;;;9.90;91.20;;;;;;5092027;28;20036;-78
2021/10/30 05:24:20;;;;;;;23.77;2.50;;;9.90;91.30;;;;;;5092774;28;20405;-78
2021/10/30 05:26:48;;;;;;;17.17;2.17;;;9.90;91.30;;;;;;5092849;28;20040;-75
2021/10/30 05:29:16;;;;;;;16.23;2.55;;;9.90;91.40;;;;;;5091056;28;20051;-76
2021/10/30 05:31:45;;;;;;;15.52;2.05;;;9.90;91.40;;;;;;5071191;28;20049;-76
2021/10/30 05:34:13;;;;;;;14.52;2.00;;;9.90;91.50;;;;;;5079428;28;20052;-76
2021/10/30 05:37:18;;;;;;;18.70;2.58;;;9.90;91.50;;;;;;5075926;28;20048;-76
2021/10/30 05:39:55;;;;;;;12.63;2.33;;;9.90;91.60;;;;;;5090808;28;20517;-76
2021/10/30 05:42:27;;;;;;;16.53;1.93;;;9.90;91.50;;;;;;5091579;28;20429;-76
2021/10/30 05:44:55;;;;;;;11.95;1.70;;;9.90;91.60;;;;;;5092060;28;20044;-76
2021/10/30 05:47:22;;;;;;;9.02;1.52;;;9.80;91.60;;;;;;5092598;28;20052;-76
2021/10/30 05:49:52;;;;;;;16.52;2.42;;;9.90;91.70;;;;;;5088109;28;20045;-77
2021/10/30 05:52:19;;;;;;;17.27;2.55;;;9.90;91.70;;;;;;5070689;28;20051;-75
2021/10/30 05:54:47;;;;;;;22.08;2.22;;;9.90;91.70;;;;;;5073543;28;20057;-73
2021/10/30 05:57:15;;;;;;;14.20;2.33;;;9.90;91.80;;;;;;5091935;28;20044;-73
2021/10/30 05:59:42;;;;;;;13.32;1.88;;;9.80;91.80;;;;;;5088245;28;20044;-74
2021/10/30 06:02:13;;;;;;;15.27;2.25;;;9.80;91.80;;;;;;5071748;28;20063;-74
2021/10/30 06:04:41;;;;;;;14.18;1.70;;;9.80;91.90;;;;;;5070767;28;20052;-74
2021/10/30 06:07:10;;;;;;;16.90;3.00;;;9.80;91.90;;;;;;5071870;28;20064;-75
2021/10/30 06:09:37;;;;;;;10.07;1.77;;;9.80;91.90;;;;;;5073959;28;20044;-74
2021/10/30 06:12:06;;;;;;;16.92;1.92;;;9.80;92.00;;;;;;5092260;28;20044;-74
2021/10/30 06:14:33;;;;;;;13.18;1.90;;;9.80;92.10;;;;;;5090387;28;20477;-74
2021/10/30 06:17:01;;;;;;;18.40;2.22;;;9.80;92.20;;;;;;5092578;28;20047;-76
2021/10/30 06:19:28;;;;;;;14.25;2.10;;;9.80;92.40;;;;;;5081788;28;20401;-74
2021/10/30 06:21:57;;;;;;;13.73;2.28;;;9.80;92.50;;;;;;5110492;28;20047;-77
2021/10/30 06:24:27;;;;;;;6.88;1.13;;;9.80;92.70;;;;;;5112289;28;20050;-75
2021/10/30 06:26:55;;;;;;;21.52;2.25;;;9.70;92.70;;;;;;5110902;28;20044;-73
2021/10/30 06:29:24;;;;;;;11.63;2.08;;;9.70;92.70;;;;;;5108804;28;20550;-74
2021/10/30 06:31:52;;;;;;;9.05;1.55;;;9.70;92.70;;;;;;5091908;28;20044;-73
2021/10/30 06:34:20;;;;;;;8.30;1.48;;;9.70;92.80;;;;;;5091894;28;20032;-73
2021/10/30 06:36:47;;;;;;;7.75;1.42;;;9.60;92.90;;;;;;5092736;28;20504;-73
2021/10/30 06:39:15;;;;;;;9.05;1.10;;;9.60;92.90;;;;;;5081709;28;20053;-74
2021/10/30 06:41:47;;;;;;;5.82;1.10;;;9.70;92.90;;;;;;5095429;28;20126;-73
2021/10/30 06:44:16;;;;;;;7.57;1.30;;;9.60;92.60;;;;;;5095384;28;20424;-76
2021/10/30 06:46:44;;;;;;;7.07;0.90;;;9.60;92.50;;;;;;5115041;28;20043;-74
2021/10/30 06:49:13;;;;;;;5.35;1.02;;;9.60;92.50;;;;;;5115993;27;20121;-74
2021/10/30 06:51:42;;;;;;;3.67;0.70;;;9.60;92.50;;;;;;5095605;28;20485;-74
2021/10/30 06:54:10;;;;;;;6.15;0.82;;;9.50;92.40;;;;;;5095810;28;20048;-74
2021/10/30 06:56:40;;;;;;;4.45;0.70;;;9.50;92.40;;;;;;5094115;28;20048;-74
2021/10/30 06:59:07;;;;;;;3.20;0.60;;;9.50;92.40;;;;;;5088943;28;20052;-75
2021/10/30 07:01:35;;;;;;;2.65;0.60;;;9.40;92.30;;;;;;5075309;28;20325;-75
2021/10/30 07:04:05;;;;;;;2.92;0.60;;;9.40;92.30;;;;;;5074477;28;20486;-75
2021/10/30 07:06:35;;;;;;;4.43;0.50;;;9.40;92.20;;;;;;5075428;28;20052;-75
2021/10/30 07:09:04;;;;;;;3.55;0.73;;;9.40;92.20;;;;;;5075127;28;20051;-75
2021/10/30 07:11:31;;;;;;;2.58;0.55;;;9.40;92.10;;;;;;5094869;28;20059;-76
2021/10/30 07:13:59;;;;;;;1.70;0.60;;;9.30;92.00;;;;;;5094168;28;20063;-76
2021/10/30 07:16:27;;;;;;;5.30;0.52;;;9.30;92.10;;;;;;5095436;28;20490;-76
2021/10/30 07:18:54;;;;;;;3.58;0.63;;;9.30;92.10;;;;;;5094822;28;20489;-76
2021/10/30 07:21:22;;;;;;;5.47;0.40;;;9.30;92.20;;;;;;5074538;28;20044;-76
2021/10/30 07:23:50;;;;;;;2.28;0.40;;;9.30;92.30;;;;;;5073735;28;20367;-77
2021/10/30 07:26:17;;;;;;;3.25;0.50;;;9.20;92.30;;;;;;5074950;28;20047;-77
2021/10/30 07:28:45;;;;;;;3.10;0.80;;;9.20;92.30;;;;;;5074787;28;20053;-76
2021/10/30 07:31:13;;;;;;;4.57;0.85;;;9.20;92.40;;;;;;5091059;28;20059;-77
2021/10/30 07:33:40;;;;;;;5.60;0.60;;;9.20;92.30;;;;;;5076671;28;20048;-76
2021/10/30 07:36:08;;;;;;;2.47;0.45;;;9.20;92.40;;;;;;5060563;28;20421;-77
2021/10/30 07:38:37;;;;;;;4.75;0.60;;;9.20;92.40;;;;;;5094702;28;20040;-76
2021/10/30 07:41:04;;;;;;;2.70;0.65;;;9.10;92.40;;;;;;5093734;28;20044;-77
2021/10/30 07:43:35;;;;;;;2.15;0.47;;;9.20;92.40;;;;;;5095037;28;20039;-76
2021/10/30 07:46:03;;;;;;;2.75;0.85;;;9.20;92.50;;;;;;5094641;28;20071;-76
2021/10/30 07:48:31;;;;;;;4.53;0.90;;;9.20;92.50;;;;;;5093935;28;20409;-77
2021/10/30 07:50:58;;;;;;;2.20;0.50;;;9.20;92.50;;;;;;5091962;28;20504;-76
2021/10/30 07:53:27;;;;;;;3.22;0.70;;;9.20;92.50;;;;;;5094663;28;20047;-76
2021/10/30 07:55:55;;;;;;;4.57;0.63;;;9.20;92.60;;;;;;5094779;28;20051;-77
2021/10/30 07:58:22;;;;;;;2.47;0.60;;;9.20;92.60;;;;;;5092899;28;20055;-77
2021/10/30 08:00:50;;;;;;;3.95;0.45;;;9.20;92.60;;;;;;5072726;28;20037;-77
2021/10/30 08:03:18;;;;;;;2.20;0.52;;;9.10;92.60;;;;;;5077247;28;20044;-78
2021/10/30 08:05:45;;;;;;;4.55;0.50;;;9.20;92.60;;;;;;5073455;28;20060;-78
2021/10/30 08:08:13;;;;;;;4.78;0.60;;;9.10;92.60;;;;;;5079041;28;20044;-78
2021/10/30 08:10:41;;;;;;;4.80;0.45;;;9.10;92.50;;;;;;5093583;28;20063;-78
2021/10/30 08:13:11;;;;;;;1.10;0.40;;;9.10;92.50;;;;;;5094439;28;20048;-78
2021/10/30 08:15:39;;;;;;;3.85;0.68;;;9.00;92.50;;;;;;5093233;28;20051;-78
2021/10/30 08:18:07;;;;;;;1.38;0.28;;;9.10;92.50;;;;;;5076243;28;20409;-78
2021/10/30 08:20:35;;;;;;;3.17;0.57;;;9.00;92.60;;;;;;5087793;28;20055;-79
2021/10/30 08:23:02;;;;;;;1.27;0.45;;;9.10;92.50;;;;;;5081794;28;20056;-79
2021/10/30 08:25:30;;;;;;;4.82;0.60;;;9.00;92.50;;;;;;5082205;28;20055;-79
2021/10/30 08:27:58;;;;;;;1.42;0.50;;;9.00;92.60;;;;;;5083594;28;20512;-79
2021/10/30 08:30:26;;;;;;;2.45;0.50;;;9.00;92.60;;;;;;5071817;28;20047;-79
2021/10/30 08:32:54;;;;;;;1.58;0.52;;;9.00;92.70;;;;;;5072330;28;20410;-76
2021/10/30 08:35:22;;;;;;;1.85;0.50;;;9.00;92.70;;;;;;5090620;28;20047;-79
2021/10/30 08:37:50;;;;;;;2.97;0.60;;;9.00;92.80;;;;;;5091085;28;20059;-79
2021/10/30 08:40:18;;;;;;;2.25;0.52;;;9.10;92.80;;;;;;5074302;28;20066;-78
2021/10/30 08:43:08;;;;;;;3.13;0.47;;;9.10;92.80;;;;;;5076752;28;20052;-79
2021/10/30 08:45:36;;;;;;;2.38;0.43;;;9.10;92.70;;;;;;5066477;28;20517;-79
2021/10/30 08:48:04;;;;;;;1.65;0.50;;;9.10;92.60;;;;;;5071994;28;20056;-79
2021/10/30 08:50:32;;;;;;;11.68;0.60;;;9.10;92.50;;;;;;5072149;28;20047;-79
2021/10/30 08:53:03;;;;;;;1.35;0.40;;;9.10;92.50;;;;;;5071640;28;20614;-79
2021/10/30 08:55:37;;;;;;;4.32;0.35;;;9.20;92.50;;;;;;5071536;28;20053;-81
2021/10/30 08:58:13;;;;;;;0.77;0.40;;;9.20;92.20;;;;;;5073368;28;20047;-79
2021/10/30 09:00:50;;;;;;;1.58;0.30;;;9.20;92.20;;;;;;5072555;28;20406;-83
2021/10/30 09:03:20;;;;;;;1.38;0.50;;;9.20;92.10;;;;;;5071970;28;20071;-80
2021/10/30 09:05:54;;;;;;;2.28;0.30;;;9.20;92.00;;;;;;5081601;28;20429;-80
2021/10/30 09:08:27;;;;;;;1.63;0.47;;;9.20;91.90;;;;;;5075008;28;20048;-81
2021/10/30 09:10:57;;;;;;;0.20;0.10;;;9.30;91.70;;;;;;5093002;28;20048;-81
2021/10/30 09:13:30;;;;;;;0.60;0.20;;;9.20;91.60;;;;;;5093460;28;20043;-80
2021/10/30 09:16:00;;;;;;;0.80;0.30;;;9.30;91.50;;;;;;5082167;28;20513;-81
2021/10/30 09:18:41;;;;;;;2.28;0.43;;;9.30;91.30;;;;;;5071353;28;20044;-81
2021/10/30 09:21:14;;;;;;;0.38;0.20;;;9.30;91.20;;;;;;5070982;28;20120;-81
2021/10/30 09:23:44;;;;;;;;;;;9.30;90.90;;;;;;5072328;28;20052;-81
2021/10/30 09:26:26;;;;;;;0.28;0.20;;;9.30;90.70;;;;;;5083036;28;19920;-80
2021/10/30 09:28:58;;;;;;;1.27;0.30;;;9.30;90.70;;;;;;5092161;28;20052;-81
2021/10/30 09:31:27;;;;;;;0.20;0.10;;;9.40;90.70;;;;;;5092441;28;20296;-81
2021/10/30 09:33:57;;;;;;;3.90;0.35;;;9.40;90.40;;;;;;5092698;28;20055;-81
2021/10/30 09:36:37;;;;;;;1.08;0.10;;;9.50;90.20;;;;;;5092051;28;20040;-81
2021/10/30 09:39:15;;;;;;;3.15;0.20;;;9.40;90.10;;;;;;5092590;28;20055;-81
2021/10/30 09:41:49;;;;;;;0.00;0.00;;;9.50;90.30;;;;;;5091476;28;20048;-79
2021/10/30 09:44:22;;;;;;;1.23;0.20;;;9.70;90.10;;;;;;5091639;28;20048;-79
2021/10/30 09:46:53;;;;;;;0.20;0.17;;;9.70;90.00;;;;;;5070444;28;20051;-79
2021/10/30 09:49:22;;;;;;;0.90;0.10;;;9.80;89.60;;;;;;5076239;28;20063;-79
2021/10/30 09:52:10;;;;;;;0.30;0.10;;;9.90;89.20;;;;;;5091929;28;20523;-79
2021/10/30 09:54:48;;;;;;;1.13;0.20;;;10.00;88.80;;;;;;5091202;28;20393;-80
2021/10/30 09:57:30;;;;;;;0.68;0.28;;;10.10;88.40;;;;;;5090264;28;20048;-79
2021/10/30 10:00:04;;;;;;;0.38;0.00;;;10.10;88.30;;;;;;5091109;28;20044;-78
2021/10/30 10:02:35;;;;;;;0.25;0.10;;;10.10;88.50;;;;;;5092634;28;20503;-79
2021/10/30 10:05:04;;;;;;;0.35;0.10;;;10.10;88.50;;;;;;5090870;28;20048;-78
2021/10/30 10:07:36;;;;;;;0.73;0.08;;;10.10;88.50;;;;;;5070888;28;20044;-78
2021/10/30 10:10:05;;;;;;;0.35;0.10;;;10.10;88.60;;;;;;5081251;28;20048;-78
2021/10/30 10:12:32;;;;;;;2.45;0.10;;;10.20;88.10;;;;;;5091520;28;20051;-79
2021/10/30 10:15:01;;;;;;;0.10;0.10;;;10.20;87.80;;;;;;5086150;28;20378;-80
2021/10/30 10:17:32;;;;;;;0.38;0.10;;;10.20;87.60;;;;;;5071892;28;20048;-81
2021/10/30 10:20:07;;;;;;;2.10;0.20;;;10.20;87.60;;;;;;5071996;28;20041;-80
2021/10/30 10:22:38;;;;;;;0.65;0.20;;;10.30;87.60;;;;;;5071781;28;20048;-80
2021/10/30 10:25:31;;;;;;;0.20;0.15;;;10.30;87.40;;;;;;5072356;28;20044;-81
2021/10/30 10:28:17;;;;;;;0.10;0.10;;;10.40;87.40;;;;;;5084540;28;20056;-80
2021/10/30 10:31:00;;;;;;;0.15;0.10;;;10.50;87.20;;;;;;5072730;28;20033;-80
2021/10/30 10:33:30;;;;;;;2.28;0.10;;;10.60;86.60;;;;;;5071681;28;20048;-80
2021/10/30 10:36:17;;;;;;;0.20;0.03;;;10.70;86.50;;;;;;5070813;28;20049;-79
2021/10/30 10:38:57;;;;;;;0.30;0.10;;;10.80;85.40;;;;;;5092396;28;20039;-78
2021/10/30 10:41:49;;;;;;;0.20;0.10;;;10.80;85.40;;;;;;5081947;28;20408;-79
2021/10/30 10:44:22;;;;;;;0.55;0.10;;;11.00;84.50;;;;;;5107142;28;20044;-78
2021/10/30 10:46:53;;;;;;;0.68;0.10;;;11.00;84.10;;;;;;5060757;28;20057;-78
2021/10/30 10:49:43;;;;;;;1.27;0.10;;;11.00;83.70;;;;;;5087325;28;20066;-78
2021/10/30 10:55:02;;;;;;;3.42;0.30;;;10.90;83.60;;;;;;5080261;28;20044;-77
2021/10/30 10:57:35;;;;;;;1.65;0.20;;;11.00;84.20;;;;;;5084775;28;20044;-78
2021/10/30 11:00:10;;;;;;;;;;;11.20;83.30;;;;;;5094703;28;20059;-77
2021/10/30 11:02:39;;;;;;;0.00;0.00;;;11.30;82.90;;;;;;5070136;28;19920;-77
2021/10/30 11:05:10;;;;;;;2.45;0.17;;;11.30;81.70;;;;;;5087484;28;20402;-77
2021/10/30 11:07:43;;;;;;;1.70;0.10;;;11.30;80.90;;;;;;5069584;28;20402;-78
2021/10/30 11:10:20;;;;;;;1.02;0.20;;;11.30;81.00;;;;;;5071113;28;20494;-77
2021/10/30 11:13:00;;;;;;;1.85;0.30;;;11.30;81.50;;;;;;5089680;28;20044;-76
2021/10/30 11:15:52;;;;;;;0.85;0.10;;;11.40;81.40;;;;;;5088183;28;20478;-76
2021/10/30 11:18:27;;;;;;;0.75;0.10;;;11.30;81.40;;;;;;5069901;28;20051;-76
2021/10/30 11:21:11;;;;;;;0.08;0.00;;;11.30;81.70;;;;;;5053451;28;20036;-76
2021/10/30 11:23:50;;;;;;;1.65;0.20;;;11.30;80.70;;;;;;5073824;28;20485;-76
2021/10/30 11:26:34;;;;;;;0.57;0.20;;;11.40;80.60;;;;;;5094110;28;20405;-76
2021/10/30 11:29:14;;;;;;;0.15;0.08;;;11.50;80.30;;;;;;5076758;28;20059;-76
2021/10/30 11:31:42;;;;;;;0.28;0.10;;;11.70;79.90;;;;;;5094920;28;20071;-76
2021/10/30 11:34:12;;;;;;;1.92;0.30;;;11.70;79.70;;;;;;5100679;28;20424;-76
2021/10/30 11:36:41;;;;;;;1.10;0.20;;;11.70;80.00;;;;;;5094494;28;20505;-76
2021/10/30 11:39:11;;;;;;;0.50;0.20;;;11.70;79.30;;;;;;5087859;28;20040;-75
2021/10/30 11:41:41;;;;;;;3.55;0.30;;;11.80;79.40;;;;;;5103756;28;20052;-76
2021/10/30 11:44:17;;;;;;;0.43;0.10;;;12.30;78.10;;;;;;5093907;28;20047;-75
2021/10/30 11:46:54;;;;;;;1.25;0.15;;;12.80;76.60;;;;;;5088227;28;20055;-76
2021/10/30 11:49:31;;;;;;;1.70;0.40;;;13.20;76.10;;;;;;5094576;28;20040;-75
2021/10/30 11:52:04;;;;;;;1.08;0.10;;;13.30;74.80;;;;;;5093461;28;20044;-75
2021/10/30 11:54:32;;;;;;;0.75;0.10;;;13.40;73.80;;;;;;5096877;28;20397;-76
2021/10/30 11:57:01;;;;;;;0.75;0.20;;;13.20;72.10;;;;;;5090538;28;20051;-77
2021/10/30 11:59:28;;;;;;;2.20;0.08;;;12.80;73.10;;;;;;5084828;28;20043;-76
2021/10/30 12:01:59;;;;;;;1.08;0.30;;;12.40;73.50;;;;;;5074450;28;20051;-76
2021/10/30 12:04:33;;;;;;;1.50;0.20;;;12.30;74.00;;;;;;5089889;28;20044;-76
2021/10/30 12:07:12;;;;;;;0.45;0.15;;;12.20;74.40;;;;;;5086194;28;20040;-77
2021/10/30 12:09:45;;;;;;;1.15;0.50;;;12.00;75.20;;;;;;5099029;28;20040;-77
2021/10/30 12:12:19;;;;;;;;;;;12.00;75.60;;;;;;5086848;28;20414;-77
2021/10/30 12:14:55;;;;;;;3.03;0.35;;;11.90;76.20;;;;;;5066758;28;19920;-76
2021/10/30 12:17:34;;;;;;;0.32;0.10;;;12.00;76.90;;;;;;5079000;28;20052;-76
2021/10/30 12:20:10;;;;;;;0.43;0.10;;;12.80;77.40;;;;;;5097023;28;20500;-75
2021/10/30 12:22:43;;;;;;;1.10;0.20;;;13.80;76.10;;;;;;5083876;28;20127;-76
2021/10/30 12:25:27;;;;;;;0.85;0.10;;;14.90;70.10;;;;;;5089927;28;20035;-76
2021/10/30 12:27:58;;;;;;;3.25;0.15;;;15.70;62.90;;;;;;5065826;28;20052;-76
2021/10/30 12:30:32;;;;;;;1.05;0.38;;;16.00;60.20;;;;;;5086426;28;20037;-75
2021/10/30 12:33:11;;;;;;;1.23;0.30;;;15.70;60.50;;;;;;5084211;28;20052;-76
2021/10/30 12:35:42;;;;;;;1.25;0.13;;;15.10;63.20;;;;;;5072736;28;20066;-76
2021/10/30 12:38:17;;;;;;;2.55;0.20;;;14.60;64.40;;;;;;5077624;28;20044;-75
2021/10/30 12:40:47;;;;;;;2.95;0.20;;;14.00;66.10;;;;;;5086124;28;20528;-76
2021/10/30 12:43:26;;;;;;;2.17;0.80;;;13.60;67.60;;;;;;5091700;28;20055;-76
2021/10/30 12:45:57;;;;;;;4.63;0.82;;;13.40;68.60;;;;;;5081212;28;20060;-76
2021/10/30 12:48:34;;;;;;;4.35;1.85;;;13.80;68.80;;;;;;5086712;28;20063;-76
2021/10/30 12:51:05;;;;;;;1.10;0.40;;;14.60;67.80;;;;;;5084851;28;20047;-76
2021/10/30 12:53:36;;;;;;;0.90;0.30;;;15.50;66.60;;;;;;5089376;28;20413;-76
2021/10/30 12:56:19;;;;;;;1.15;0.40;;;16.40;64.90;;;;;;5085402;28;20052;-77
2021/10/30 12:58:48;;;;;;;0.50;0.30;;;17.60;59.00;;;;;;5059707;28;20047;-77
2021/10/30 13:01:24;;;;;;;0.38;0.20;;;18.30;55.10;;;;;;5095890;28;20040;-77
2021/10/30 13:04:04;;;;;;;3.08;0.20;;;18.70;53.10;;;;;;5091498;28;20051;-77
2021/10/30 13:06:34;;;;;;;0.32;0.10;;;18.80;48.90;;;;;;5090601;28;20513;-77
2021/10/30 13:09:20;;;;;;;1.13;0.30;;;18.50;49.50;;;;;;5092037;28;20070;-77